Time;durP1;ratioP1;P1;durP2;ratioP2;P2;SDS_P1;SDS_P2;PMS_P1;PMS_P2;Temp;Humidity;BMP_temperature;BMP_pressure;BME280_temperature;BME280_humidity;BME280_pressure;Samples;Min_cycle;Max_cycle;Signal;HPM_P1;HPM_P2
2023/12/31 00:00:48;;;;;;;;;;;;;;;17.99;59.70;101234.81;7395857;19;1843;-46
2023/12/31 00:03:19;;;;;;;;;;;;;;;18.38;58.86;101232.69;7395550;19;1469;-46
2023/12/31 00:05:47;;;;;;;;;;;;;;;18.28;59.08;101225.41;7385579;19;1346;-46
2023/12/31 00:08:16;;;;;;;;;;;;;;;18.19;59.23;101223.41;7395542;19;1324;-46
2023/12/31 00:10:44;;;;;;;;;;;;;;;18.19;59.13;101250.19;7394194;19;1395;-46
2023/12/31 00:13:13;;;;;;;;;;;;;;;18.13;59.14;101241.78;7395380;19;1568;-46
2023/12/31 00:15:41;;;;;;;;;;;;;;;18.02;59.22;101215.84;7396095;19;1513;-46
2023/12/31 00:18:09;;;;;;;;;;;;;;;17.92;59.43;101246.94;7394123;19;1527;-46
2023/12/31 00:20:40;;;;;;;;;;;;;;;17.95;59.49;101241.38;7395087;19;1389;-46
2023/12/31 00:23:11;;;;;;;;;;;;;;;17.96;59.25;101235.03;7393319;19;1847;-46
2023/12/31 00:25:39;;;;;;;;;;;;;;;17.79;59.84;101241.66;7394881;19;1433;-46
2023/12/31 00:28:08;;;;;;;;;;;;;;;17.58;59.94;101206.66;7394715;19;1534;-46
2023/12/31 00:30:37;;;;;;;;;;;;;;;17.98;59.74;101241.97;7393863;19;1477;-46
2023/12/31 00:33:05;;;;;;;;;;;;;;;18.29;58.72;101231.59;7393305;19;1452;-46
2023/12/31 00:35:33;;;;;;;;;;;;;;;18.27;59.21;101245.09;7396108;19;1496;-46
2023/12/31 00:38:04;;;;;;;;;;;;;;;18.18;59.23;101242.28;7393702;19;1793;-46
2023/12/31 00:40:33;;;;;;;;;;;;;;;18.09;59.44;101243.84;7393962;19;1388;-46
2023/12/31 00:43:01;;;;;;;;;;;;;;;18.07;59.40;101241.28;7393352;19;1843;-46
2023/12/31 00:45:29;;;;;;;;;;;;;;;18.04;59.45;101254.03;7392623;19;1575;-46
2023/12/31 00:47:58;;;;;;;;;;;;;;;17.93;59.73;101243.31;7394164;19;1361;-46
2023/12/31 00:50:26;;;;;;;;;;;;;;;17.88;59.87;101240.97;7394950;19;1483;-46
2023/12/31 00:52:54;;;;;;;;;;;;;;;17.73;60.11;101252.81;7394486;19;1501;-46
2023/12/31 00:55:25;;;;;;;;;;;;;;;17.74;60.40;101255.34;7395493;19;921;-46
2023/12/31 00:57:53;;;;;;;;;;;;;;;18.05;59.76;101247.72;7394375;19;1780;-46
2023/12/31 01:00:22;;;;;;;;;;;;;;;18.24;59.10;101231.97;7393778;19;1540;-46
2023/12/31 01:02:51;;;;;;;;;;;;;;;18.23;59.21;101230.25;7391652;19;1858;-46
2023/12/31 01:05:19;;;;;;;;;;;;;;;18.13;59.45;101237.28;7377819;19;1489;-46
2023/12/31 01:07:47;;;;;;;;;;;;;;;18.08;59.27;101234.09;7392858;19;1748;-46
2023/12/31 01:10:16;;;;;;;;;;;;;;;18.12;59.37;101238.25;7394802;19;1465;-46
2023/12/31 01:12:47;;;;;;;;;;;;;;;18.05;59.32;101232.50;7392813;19;1506;-46
2023/12/31 01:15:15;;;;;;;;;;;;;;;17.99;59.57;101238.34;7394401;19;1370;-46
2023/12/31 01:17:43;;;;;;;;;;;;;;;17.94;59.63;101248.53;7393810;19;1382;-46
2023/12/31 01:20:12;;;;;;;;;;;;;;;17.80;60.15;101254.91;7393949;19;1438;-46
2023/12/31 01:22:41;;;;;;;;;;;;;;;17.72;60.24;101229.69;7392337;19;1865;-50
2023/12/31 01:25:10;;;;;;;;;;;;;;;17.93;60.13;101232.63;7395492;19;1034;-47
2023/12/31 01:27:38;;;;;;;;;;;;;;;18.24;59.27;101231.97;7394327;19;1287;-46
2023/12/31 01:30:10;;;;;;;;;;;;;;;18.18;59.44;101235.09;7391659;19;1596;-46
2023/12/31 01:32:38;;;;;;;;;;;;;;;18.14;59.38;101230.94;7393910;19;1468;-46
2023/12/31 01:35:07;;;;;;;;;;;;;;;18.08;59.63;101231.41;7393151;19;1425;-46
2023/12/31 01:37:35;;;;;;;;;;;;;;;18.06;59.63;101238.72;7394646;19;1473;-47
2023/12/31 01:40:04;;;;;;;;;;;;;;;18.04;59.44;101244.19;7394584;19;1823;-50
2023/12/31 01:42:33;;;;;;;;;;;;;;;17.87;59.93;101245.47;7393091;19;1844;-46
2023/12/31 01:45:03;;;;;;;;;;;;;;;17.80;60.25;101222.78;7392828;19;1436;-48
2023/12/31 01:47:34;;;;;;;;;;;;;;;17.68;60.44;101226.41;7392734;19;1323;-46
2023/12/31 01:50:03;;;;;;;;;;;;;;;17.81;60.44;101232.53;7393924;19;1434;-47
2023/12/31 01:52:31;;;;;;;;;;;;;;;18.20;59.62;101233.13;7391835;19;1448;-46
2023/12/31 01:55:00;;;;;;;;;;;;;;;18.09;59.59;101225.09;7394446;19;1402;-47
2023/12/31 01:57:33;;;;;;;;;;;;;;;18.07;59.53;101224.38;7392814;19;1987;-46
2023/12/31 02:00:03;;;;;;;;;;;;;;;18.05;59.81;101231.66;7393460;19;1764;-49
2023/12/31 02:02:34;;;;;;;;;;;;;;;17.97;59.85;101234.09;7390313;19;1848;-47
2023/12/31 02:05:05;;;;;;;;;;;;;;;17.84;60.05;101223.44;7379434;19;1752;-47
2023/12/31 02:07:33;;;;;;;;;;;;;;;17.92;60.02;101230.91;7392075;19;1417;-46
2023/12/31 02:10:01;;;;;;;;;;;;;;;17.84;60.08;101240.34;7392437;19;1348;-46
2023/12/31 02:12:30;;;;;;;;;;;;;;;17.58;60.76;101214.69;7392049;19;1821;-46
2023/12/31 02:14:58;;;;;;;;;;;;;;;17.74;60.71;101223.25;7392707;19;1527;-46
2023/12/31 02:17:26;;;;;;;;;;;;;;;18.19;59.53;101225.25;7391717;19;1489;-47
2023/12/31 02:19:57;;;;;;;;;;;;;;;18.10;59.76;101229.47;7391962;19;1575;-46
2023/12/31 02:22:26;;;;;;;;;;;;;;;18.06;59.72;101206.59;7392282;19;1842;-51
2023/12/31 02:24:56;;;;;;;;;;;;;;;18.02;60.09;101221.19;7392962;19;1437;-47
2023/12/31 02:27:27;;;;;;;;;;;;;;;17.92;59.98;101220.19;7392109;19;1495;-47
2023/12/31 02:30:00;;;;;;;;;;;;;;;17.86;60.15;101208.97;7391402;19;1473;-46
2023/12/31 02:32:28;;;;;;;;;;;;;;;17.67;60.78;101230.06;7391921;19;1498;-47
2023/12/31 02:34:57;;;;;;;;;;;;;;;17.58;60.88;101234.25;7393861;19;1147;-46
2023/12/31 02:37:25;;;;;;;;;;;;;;;17.63;60.92;101215.22;7392247;19;1500;-46
2023/12/31 02:39:53;;;;;;;;;;;;;;;17.98;60.09;101219.72;7391185;19;1438;-46
2023/12/31 02:42:22;;;;;;;;;;;;;;;18.12;60.00;101235.56;7390373;19;1857;-46
2023/12/31 02:44:52;;;;;;;;;;;;;;;18.09;59.77;101230.47;7392108;19;1477;-47
2023/12/31 02:47:21;;;;;;;;;;;;;;;18.05;59.87;101237.03;7391408;19;1595;-46
2023/12/31 02:49:49;;;;;;;;;;;;;;;18.01;59.73;101236.41;7390701;19;1509;-46
2023/12/31 02:52:17;;;;;;;;;;;;;;;17.93;59.93;101240.66;7390992;19;1213;-46
2023/12/31 02:54:46;;;;;;;;;;;;;;;17.72;60.48;101257.28;7389749;19;1525;-46
2023/12/31 02:57:14;;;;;;;;;;;;;;;17.60;60.84;101237.66;7390292;19;1460;-47
2023/12/31 02:59:42;;;;;;;;;;;;;;;17.57;60.94;101253.13;7390384;19;1689;-46
2023/12/31 03:02:13;;;;;;;;;;;;;;;17.72;60.55;101248.44;7390031;19;1857;-46
2023/12/31 03:04:42;;;;;;;;;;;;;;;18.08;59.56;101251.03;7377246;19;1453;-47
2023/12/31 03:07:10;;;;;;;;;;;;;;;18.00;60.12;101261.44;7389155;19;1728;-46
2023/12/31 03:09:38;;;;;;;;;;;;;;;17.98;59.79;101252.69;7389150;19;1555;-46
2023/12/31 03:12:07;;;;;;;;;;;;;;;17.95;59.93;101260.13;7390923;19;1670;-47
2023/12/31 03:14:35;;;;;;;;;;;;;;;17.95;59.81;101266.31;7391724;19;1430;-47
2023/12/31 03:17:04;;;;;;;;;;;;;;;17.84;60.05;101266.25;7398907;19;1500;-46
2023/12/31 03:19:36;;;;;;;;;;;;;;;17.74;60.32;101263.38;7397991;19;1452;-46
2023/12/31 03:22:05;;;;;;;;;;;;;;;17.62;60.60;101250.94;7396621;19;1853;-46
2023/12/31 03:24:33;;;;;;;;;;;;;;;17.48;60.76;101266.19;7397577;19;1616;-46
2023/12/31 03:27:01;;;;;;;;;;;;;;;17.60;60.83;101263.56;7398326;19;1754;-47
2023/12/31 03:29:30;;;;;;;;;;;;;;;17.94;60.03;101258.38;7398167;19;1320;-46
2023/12/31 03:31:58;;;;;;;;;;;;;;;18.08;59.56;101256.38;7396882;19;1788;-46
2023/12/31 03:34:26;;;;;;;;;;;;;;;18.01;59.68;101259.63;7396277;19;1860;-46
2023/12/31 03:36:57;;;;;;;;;;;;;;;17.95;59.91;101268.97;7396019;19;1584;-46
2023/12/31 03:39:26;;;;;;;;;;;;;;;17.95;59.91;101268.13;7395943;19;1721;-46
2023/12/31 03:41:54;;;;;;;;;;;;;;;17.86;60.32;101283.03;7397297;19;1867;-46
2023/12/31 03:44:22;;;;;;;;;;;;;;;17.66;60.43;101273.81;7397774;19;1469;-47
2023/12/31 03:46:50;;;;;;;;;;;;;;;17.48;60.88;101262.66;7395137;19;1516;-46
2023/12/31 03:49:19;;;;;;;;;;;;;;;17.47;60.81;101260.97;7397018;19;1662;-46
2023/12/31 03:51:47;;;;;;;;;;;;;;;17.71;60.43;101279.69;7397079;19;1628;-46
2023/12/31 03:54:18;;;;;;;;;;;;;;;18.12;59.72;101272.19;7395590;19;1397;-46
2023/12/31 03:56:46;;;;;;;;;;;;;;;18.08;59.75;101268.88;7396186;19;1832;-46
2023/12/31 03:59:15;;;;;;;;;;;;;;;17.99;59.83;101272.28;7395832;19;1169;-46
2023/12/31 04:01:47;;;;;;;;;;;;;;;17.84;60.24;101267.09;7397061;19;1456;-46
2023/12/31 04:04:17;;;;;;;;;;;;;;;18.08;59.66;101267.09;7392254;19;1834;-46
2023/12/31 04:06:45;;;;;;;;;;;;;;;18.42;59.08;101279.66;7381437;19;1456;-46
2023/12/31 04:09:14;;;;;;;;;;;;;;;18.61;58.65;101281.78;7393982;19;1439;-47
2023/12/31 04:11:45;;;;;;;;;;;;;;;18.85;58.33;101284.38;7398057;19;1266;-46
2023/12/31 04:14:13;;;;;;;;;;;;;;;18.96;57.94;101271.00;7396772;19;1910;-46
2023/12/31 04:16:42;;;;;;;;;;;;;;;18.95;58.01;101274.63;7396667;19;1782;-46
2023/12/31 04:19:14;;;;;;;;;;;;;;;18.96;58.08;101286.19;7396162;19;1886;-46
2023/12/31 04:21:42;;;;;;;;;;;;;;;18.88;58.17;101289.50;7396505;19;1700;-46
2023/12/31 04:24:10;;;;;;;;;;;;;;;18.89;58.21;101299.25;7393415;19;1863;-46
2023/12/31 04:26:39;;;;;;;;;;;;;;;18.89;58.02;101293.88;7395169;19;1756;-46
2023/12/31 04:29:09;;;;;;;;;;;;;;;18.94;58.16;101306.91;7394702;19;1942;-46
2023/12/31 04:31:42;;;;;;;;;;;;;;;18.93;58.19;101286.44;7394868;19;1117;-46
2023/12/31 04:34:10;;;;;;;;;;;;;;;18.94;58.13;101299.75;7395469;19;1575;-46
2023/12/31 04:36:39;;;;;;;;;;;;;;;19.00;58.23;101304.59;7394990;19;1457;-46
2023/12/31 04:39:08;;;;;;;;;;;;;;;18.93;58.03;101298.03;7393527;19;1159;-46
2023/12/31 04:41:37;;;;;;;;;;;;;;;18.97;58.17;101294.13;7395667;19;1027;-46
2023/12/31 04:44:05;;;;;;;;;;;;;;;18.95;58.03;101306.78;7393246;19;1874;-46
2023/12/31 04:46:36;;;;;;;;;;;;;;;18.94;58.08;101305.09;7394345;19;1879;-46
2023/12/31 04:49:04;;;;;;;;;;;;;;;19.01;58.14;101321.53;7393878;19;1914;-47
2023/12/31 04:51:33;;;;;;;;;;;;;;;18.94;57.96;101318.50;7393313;19;1816;-46
2023/12/31 04:54:01;;;;;;;;;;;;;;;18.95;58.13;101309.47;7393717;19;1374;-51
2023/12/31 04:56:29;;;;;;;;;;;;;;;18.98;58.14;101317.28;7395167;19;1326;-46
2023/12/31 04:58:58;;;;;;;;;;;;;;;19.01;57.81;101322.38;7393284;19;1602;-46
2023/12/31 05:01:31;;;;;;;;;;;;;;;19.02;57.75;101323.22;7392336;19;1448;-46
2023/12/31 05:04:03;;;;;;;;;;;;;;;19.02;58.07;101317.88;7392751;19;1838;-46
2023/12/31 05:06:31;;;;;;;;;;;;;;;19.03;57.81;101314.22;7379342;19;1424;-46
2023/12/31 05:08:59;;;;;;;;;;;;;;;19.10;57.61;101315.44;7393553;19;1283;-47
2023/12/31 05:11:28;;;;;;;;;;;;;;;19.12;57.59;101323.34;7393707;19;1420;-46
2023/12/31 05:13:56;;;;;;;;;;;;;;;19.08;57.70;101320.09;7393042;19;1476;-46
2023/12/31 05:16:26;;;;;;;;;;;;;;;19.10;57.80;101319.94;7390933;19;1773;-46
2023/12/31 05:18:54;;;;;;;;;;;;;;;19.11;57.84;101327.03;7394087;19;1498;-46
2023/12/31 05:21:25;;;;;;;;;;;;;;;19.05;57.81;101323.84;7393205;19;1789;-46
2023/12/31 05:23:54;;;;;;;;;;;;;;;19.05;57.71;101318.47;7392093;19;1833;-46
2023/12/31 05:26:22;;;;;;;;;;;;;;;19.08;57.84;101330.81;7393156;19;1818;-46
2023/12/31 05:28:50;;;;;;;;;;;;;;;19.11;57.79;101335.91;7393791;19;1912;-50
2023/12/31 05:31:20;;;;;;;;;;;;;;;19.11;57.60;101332.38;7391723;19;1809;-46
2023/12/31 05:33:48;;;;;;;;;;;;;;;19.08;57.52;101338.84;7392715;19;1729;-46
2023/12/31 05:36:16;;;;;;;;;;;;;;;19.05;57.73;101331.88;7392896;19;1696;-46
2023/12/31 05:38:47;;;;;;;;;;;;;;;19.11;57.63;101327.84;7389943;19;1773;-46
2023/12/31 05:41:16;;;;;;;;;;;;;;;19.14;57.72;101334.78;7392719;19;1572;-46
2023/12/31 05:43:44;;;;;;;;;;;;;;;19.15;57.81;101380.25;7390793;19;1922;-46
2023/12/31 05:46:13;;;;;;;;;;;;;;;19.09;57.78;101332.50;7393107;19;1720;-46
2023/12/31 05:48:41;;;;;;;;;;;;;;;19.09;57.68;101361.97;7392790;19;1556;-46
2023/12/31 05:51:09;;;;;;;;;;;;;;;19.10;57.93;101342.25;7389902;19;1819;-47
2023/12/31 05:53:38;;;;;;;;;;;;;;;19.12;57.73;101345.66;7390434;19;1463;-46
2023/12/31 05:56:09;;;;;;;;;;;;;;;19.13;57.70;101357.22;7392449;19;1410;-46
2023/12/31 05:58:37;;;;;;;;;;;;;;;19.15;57.72;101352.59;7390331;19;1306;-46
2023/12/31 06:01:06;;;;;;;;;;;;;;;19.15;57.43;101349.91;7391773;19;1295;-46
2023/12/31 06:03:34;;;;;;;;;;;;;;;19.14;57.55;101334.78;7391159;19;1845;-46
2023/12/31 06:06:02;;;;;;;;;;;;;;;19.14;57.79;101348.19;7377502;19;1440;-46
2023/12/31 06:08:31;;;;;;;;;;;;;;;19.11;57.62;101351.16;7392245;19;1110;-46
2023/12/31 06:10:59;;;;;;;;;;;;;;;19.14;57.76;101342.84;7392263;19;1835;-47
2023/12/31 06:13:30;;;;;;;;;;;;;;;19.12;57.48;101329.59;7390895;19;1532;-46
2023/12/31 06:15:58;;;;;;;;;;;;;;;19.15;57.65;101349.91;7392146;19;1584;-46
2023/12/31 06:18:27;;;;;;;;;;;;;;;19.18;57.47;101355.03;7390275;19;1559;-46
2023/12/31 06:20:55;;;;;;;;;;;;;;;19.19;57.47;101354.06;7390417;19;1736;-46
2023/12/31 06:23:23;;;;;;;;;;;;;;;19.18;57.51;101360.38;7388340;19;1872;-46
2023/12/31 06:25:51;;;;;;;;;;;;;;;19.20;57.55;101351.28;7391911;19;1805;-46
2023/12/31 06:28:20;;;;;;;;;;;;;;;19.26;57.22;101352.59;7391871;19;1725;-46
2023/12/31 06:30:51;;;;;;;;;;;;;;;19.25;57.17;101350.88;7391984;19;1086;-46
2023/12/31 06:33:19;;;;;;;;;;;;;;;19.24;57.29;101365.28;7389531;19;1776;-46
2023/12/31 06:35:47;;;;;;;;;;;;;;;19.31;57.37;101371.84;7391394;19;1248;-46
2023/12/31 06:38:16;;;;;;;;;;;;;;;19.32;57.23;101373.56;7392270;19;1756;-46
2023/12/31 06:40:44;;;;;;;;;;;;;;;19.32;57.23;101367.31;7392368;19;1551;-46
2023/12/31 06:43:12;;;;;;;;;;;;;;;19.33;57.36;101371.72;7390516;19;1853;-46
2023/12/31 06:45:41;;;;;;;;;;;;;;;19.30;57.31;101364.78;7390229;19;1400;-46
2023/12/31 06:48:12;;;;;;;;;;;;;;;19.28;57.17;101372.09;7390817;19;1811;-46
2023/12/31 06:50:40;;;;;;;;;;;;;;;19.31;57.17;101377.22;7398058;19;1500;-46
2023/12/31 06:53:08;;;;;;;;;;;;;;;19.34;57.04;101394.88;7397364;19;1830;-46
2023/12/31 06:55:37;;;;;;;;;;;;;;;19.40;57.25;101394.41;7395190;19;1398;-46
2023/12/31 06:58:05;;;;;;;;;;;;;;;19.39;57.00;101382.81;7398940;19;1504;-46
2023/12/31 07:00:35;;;;;;;;;;;;;;;19.42;57.10;101379.91;7397920;19;1941;-47
2023/12/31 07:03:03;;;;;;;;;;;;;;;19.45;57.14;101376.94;7397885;19;1854;-47
2023/12/31 07:05:34;;;;;;;;;;;;;;;19.36;57.48;101395.59;7395829;19;1564;-46
2023/12/31 07:08:03;;;;;;;;;;;;;;;19.31;57.41;101379.03;7382750;19;1298;-46
2023/12/31 07:10:31;;;;;;;;;;;;;;;19.30;57.59;101396.09;7396718;19;1309;-47
2023/12/31 07:12:59;;;;;;;;;;;;;;;19.31;57.51;101395.13;7394320;19;1835;-47
2023/12/31 07:15:28;;;;;;;;;;;;;;;19.28;57.25;101393.56;7397270;19;1428;-46
2023/12/31 07:17:56;;;;;;;;;;;;;;;19.29;57.18;101381.84;7394881;19;1478;-46
2023/12/31 07:20:24;;;;;;;;;;;;;;;19.31;57.09;101393.31;7397113;19;1610;-46
2023/12/31 07:22:55;;;;;;;;;;;;;;;19.36;56.85;101390.25;7395683;19;1550;-46
2023/12/31 07:25:25;;;;;;;;;;;;;;;19.33;56.83;101385.13;7392809;19;1906;-46
2023/12/31 07:27:53;;;;;;;;;;;;;;;19.39;56.49;101385.50;7396352;19;1490;-46
2023/12/31 07:30:21;;;;;;;;;;;;;;;19.39;56.67;101396.22;7394648;19;1508;-47
2023/12/31 07:32:50;;;;;;;;;;;;;;;19.41;56.32;101386.22;7394527;19;1326;-46
2023/12/31 07:35:19;;;;;;;;;;;;;;;19.53;56.35;101396.94;7393916;19;1166;-46
2023/12/31 07:37:47;;;;;;;;;;;;;;;19.61;55.89;101389.13;7397076;19;1468;-48
2023/12/31 07:40:18;;;;;;;;;;;;;;;19.66;56.39;101397.69;7397810;19;939;-46
2023/12/31 07:42:49;;;;;;;;;;;;;;;19.72;56.13;101373.06;7395722;19;1259;-47
2023/12/31 07:45:17;;;;;;;;;;;;;;;19.84;56.02;101389.97;7394112;19;1853;-46
2023/12/31 07:47:46;;;;;;;;;;;;;;;19.85;56.15;101386.31;7394122;19;1258;-47
2023/12/31 07:50:14;;;;;;;;;;;;;;;19.55;56.79;101400.34;7394443;19;1702;-46
2023/12/31 07:52:43;;;;;;;;;;;;;;;19.26;57.76;101384.78;7390725;19;1255;-46
2023/12/31 07:55:11;;;;;;;;;;;;;;;19.01;58.57;101397.44;7396413;19;1736;-46
2023/12/31 07:57:42;;;;;;;;;;;;;;;19.03;58.70;101398.16;7395820;19;1027;-46
2023/12/31 08:00:11;;;;;;;;;;;;;;;19.52;57.38;101392.53;7393405;19;1481;-46
2023/12/31 08:02:39;;;;;;;;;;;;;;;19.54;57.14;101402.19;7395417;19;1426;-46
2023/12/31 08:05:08;;;;;;;;;;;;;;;19.31;57.79;101417.44;7394581;19;1871;-46
2023/12/31 08:07:37;;;;;;;;;;;;;;;19.03;58.09;101410.72;7381097;19;1319;-46
2023/12/31 08:10:05;;;;;;;;;;;;;;;18.91;59.20;101407.16;7394824;19;1478;-46
2023/12/31 08:12:34;;;;;;;;;;;;;;;19.10;58.13;101411.97;7393147;19;1246;-46
2023/12/31 08:15:05;;;;;;;;;;;;;;;19.44;56.80;101415.50;7395032;19;1330;-46
2023/12/31 08:17:34;;;;;;;;;;;;;;;19.68;56.34;101411.81;7395365;19;1302;-46
2023/12/31 08:20:02;;;;;;;;;;;;;;;19.54;56.44;101412.94;7391478;19;1575;-47
2023/12/31 08:22:31;;;;;;;;;;;;;;;19.30;57.19;101413.06;7395373;19;1495;-48
2023/12/31 08:25:00;;;;;;;;;;;;;;;19.14;57.96;101412.53;7353381;19;2155;-48
2023/12/31 08:27:28;;;;;;;;;;;;;;;18.99;58.22;101399.38;7387959;19;1591;-47
2023/12/31 08:29:57;;;;;;;;;;;;;;;19.25;57.48;101415.25;7393845;19;1187;-46
2023/12/31 08:32:30;;;;;;;;;;;;;;;19.76;56.55;101430.88;7394021;19;1246;-46
2023/12/31 08:34:58;;;;;;;;;;;;;;;19.86;56.14;101396.06;7388620;19;1522;-46
2023/12/31 08:37:27;;;;;;;;;;;;;;;19.59;56.93;101404.50;7392173;19;1571;-46
2023/12/31 08:39:55;;;;;;;;;;;;;;;19.34;57.83;101393.06;7393407;19;1632;-46
2023/12/31 08:42:23;;;;;;;;;;;;;;;19.07;58.34;101406.81;7393460;19;1306;-46
2023/12/31 08:44:51;;;;;;;;;;;;;;;18.98;58.64;101396.81;7392436;19;1861;-46
2023/12/31 08:47:20;;;;;;;;;;;;;;;19.42;57.52;101404.03;7392231;19;1488;-46
2023/12/31 08:49:51;;;;;;;;;;;;;;;19.72;56.84;101401.72;7392990;19;1483;-46
2023/12/31 08:52:20;;;;;;;;;;;;;;;19.70;56.97;101412.53;7391573;19;1624;-45
2023/12/31 08:54:49;;;;;;;;;;;;;;;19.52;57.78;101408.63;7391514;19;1397;-45
2023/12/31 08:57:17;;;;;;;;;;;;;;;19.42;58.35;101406.72;7391527;19;1475;-46
2023/12/31 08:59:45;;;;;;;;;;;;;;;19.24;58.59;101413.56;7390418;19;1179;-46
2023/12/31 09:02:14;;;;;;;;;;;;;;;19.15;58.71;101416.94;7392257;19;1307;-46
2023/12/31 09:04:42;;;;;;;;;;;;;;;19.61;57.88;101406.06;7390556;19;1850;-46
2023/12/31 09:07:13;;;;;;;;;;;;;;;19.99;56.71;101391.38;7393189;19;1523;-46
2023/12/31 09:09:42;;;;;;;;;;;;;;;19.97;57.03;101398.72;7389696;19;1625;-45
2023/12/31 09:12:10;;;;;;;;;;;;;;;19.73;57.93;101404.25;7384060;19;1970;-45
2023/12/31 09:14:38;;;;;;;;;;;;;;;19.59;58.22;101391.09;7384415;19;1423;-46
2023/12/31 09:17:07;;;;;;;;;;;;;;;19.50;58.59;101408.78;7385044;19;1266;-45
2023/12/31 09:19:35;;;;;;;;;;;;;;;19.41;59.14;101399.63;7374511;19;1807;-45
2023/12/31 09:22:03;;;;;;;;;;;;;;;19.76;58.09;101395.97;7387000;19;1839;-45
2023/12/31 09:24:35;;;;;;;;;;;;;;;20.14;57.15;101386.59;7385056;19;1851;-46
2023/12/31 09:27:03;;;;;;;;;;;;;;;20.11;57.05;101391.34;7368336;19;1204;-46
2023/12/31 09:29:32;;;;;;;;;;;;;;;19.82;57.97;101387.41;7386452;19;951;-46
2023/12/31 09:32:00;;;;;;;;;;;;;;;19.64;58.25;101397.78;7387567;19;1963;-45
2023/12/31 09:34:28;;;;;;;;;;;;;;;19.45;58.79;101389.50;7385265;19;1588;-46
2023/12/31 09:36:57;;;;;;;;;;;;;;;19.36;58.88;101396.47;7383805;19;1405;-45
2023/12/31 09:39:25;;;;;;;;;;;;;;;19.59;58.63;101381.19;7389696;19;1662;-46
2023/12/31 09:41:59;;;;;;;;;;;;;;;20.11;56.99;101385.97;7391812;19;1550;-47
2023/12/31 09:44:28;;;;;;;;;;;;;;;20.00;57.13;101368.09;7390194;19;1845;-46
2023/12/31 09:47:01;;;;;;;;;;;;;;;19.74;57.66;101387.19;7391039;19;1823;-47
2023/12/31 09:49:29;;;;;;;;;;;;;;;19.53;58.19;101372.81;7389863;19;1812;-47
2023/12/31 09:51:58;;;;;;;;;;;;;;;19.54;58.88;101377.22;7388034;19;1276;-47
2023/12/31 09:54:26;;;;;;;;;;;;;;;19.47;58.68;101385.72;7389488;19;1520;-48
2023/12/31 09:56:57;;;;;;;;;;;;;;;19.43;58.98;101384.25;7391508;19;1539;-47
2023/12/31 09:59:27;;;;;;;;;;;;;;;19.54;59.04;101361.97;7389129;19;1527;-48
2023/12/31 10:01:56;;;;;;;;;;;;;;;19.99;57.94;101361.00;7385315;19;1724;-46
2023/12/31 10:04:25;;;;;;;;;;;;;;;19.86;58.08;101356.66;7389834;19;1859;-46
2023/12/31 10:06:53;;;;;;;;;;;;;;;19.66;58.67;101355.59;7386509;19;1404;-46
2023/12/31 10:09:23;;;;;;;;;;;;;;;19.50;59.20;101343.53;7387287;19;1748;-46
2023/12/31 10:11:51;;;;;;;;;;;;;;;19.38;59.66;101350.78;7390692;19;1472;-47
2023/12/31 10:14:22;;;;;;;;;;;;;;;19.31;59.80;101350.41;7392580;19;1215;-46
2023/12/31 10:16:51;;;;;;;;;;;;;;;19.41;59.77;101351.34;7391425;19;1740;-47
2023/12/31 10:19:19;;;;;;;;;;;;;;;19.92;58.74;101338.34;7390463;19;1571;-45
2023/12/31 10:21:48;;;;;;;;;;;;;;;19.93;58.79;101345.41;7391592;19;1507;-46
2023/12/31 10:24:16;;;;;;;;;;;;;;;19.78;59.12;101342.19;7393304;19;1845;-46
2023/12/31 10:26:44;;;;;;;;;;;;;;;19.59;59.16;101337.44;7382419;19;1341;-47
2023/12/31 10:29:14;;;;;;;;;;;;;;;19.47;59.74;101328.56;7397875;19;1521;-46
2023/12/31 10:31:45;;;;;;;;;;;;;;;19.36;59.46;101324.06;7399059;19;1360;-45
2023/12/31 10:34:17;;;;;;;;;;;;;;;19.34;59.85;101299.22;7398454;19;1522;-45
2023/12/31 10:36:46;;;;;;;;;;;;;;;19.89;58.54;101298.34;7395253;19;1591;-46
2023/12/31 10:39:26;;;;;;;;;;;;;;;19.95;58.28;101306.72;7397290;19;1686;-45
2023/12/31 10:41:58;;;;;;;;;;;;;;;19.75;59.26;101307.53;7397625;19;1507;-45
2023/12/31 10:44:27;;;;;;;;;;;;;;;19.61;59.69;101297.91;7397156;19;1834;-45
2023/12/31 10:46:59;;;;;;;;;;;;;;;19.58;61.48;101303.53;7395063;19;1783;-45
2023/12/31 10:49:29;;;;;;;;;;;;;;;19.42;60.86;101299.44;7397688;19;1832;-46
2023/12/31 10:51:57;;;;;;;;;;;;;;;19.39;60.93;101288.94;7392195;19;1411;-46
2023/12/31 10:54:28;;;;;;;;;;;;;;;19.85;60.74;101276.25;7394592;19;1443;-46
2023/12/31 10:56:57;;;;;;;;;;;;;;;20.03;60.29;101276.53;7394738;19;1456;-46
2023/12/31 10:59:26;;;;;;;;;;;;;;;19.91;60.79;101269.53;7397661;19;1529;-46
2023/12/31 11:01:55;;;;;;;;;;;;;;;19.67;61.63;101259.84;7397566;19;1689;-45
2023/12/31 11:04:26;;;;;;;;;;;;;;;19.53;62.40;101269.03;7394969;19;1849;-46
2023/12/31 11:06:56;;;;;;;;;;;;;;;19.42;62.55;101261.88;7396412;19;1740;-46
2023/12/31 11:09:24;;;;;;;;;;;;;;;19.39;62.90;101256.75;7396149;19;1763;-46
2023/12/31 11:11:53;;;;;;;;;;;;;;;19.35;63.06;101247.25;7397054;19;1494;-45
2023/12/31 11:14:27;;;;;;;;;;;;;;;19.62;62.46;101240.59;7396398;19;1261;-47
2023/12/31 11:17:03;;;;;;;;;;;;;;;19.90;61.51;101241.00;7397273;19;1744;-44
2023/12/31 11:19:49;;;;;;;;;;;;;;;19.64;61.80;101235.97;7396204;19;1470;-44
2023/12/31 11:22:29;;;;;;;;;;;;;;;19.50;61.94;101226.38;7396706;19;1261;-45
2023/12/31 11:24:58;;;;;;;;;;;;;;;19.37;61.99;101220.31;7395188;19;1845;-45
2023/12/31 11:27:29;;;;;;;;;;;;;;;19.29;61.92;101218.28;7381020;19;1828;-46
2023/12/31 11:29:58;;;;;;;;;;;;;;;19.29;62.20;101204.88;7395410;19;1242;-46
2023/12/31 11:32:27;;;;;;;;;;;;;;;19.23;62.24;101208.91;7393684;19;1787;-45
2023/12/31 11:34:55;;;;;;;;;;;;;;;19.54;61.69;101203.69;7395498;19;1052;-46
2023/12/31 11:37:26;;;;;;;;;;;;;;;19.75;61.15;101187.63;7395297;19;1563;-46
2023/12/31 11:39:56;;;;;;;;;;;;;;;19.62;61.71;101189.63;7394541;19;1644;-46
2023/12/31 11:42:25;;;;;;;;;;;;;;;19.39;61.22;101203.13;7396219;19;1727;-46
2023/12/31 11:44:54;;;;;;;;;;;;;;;19.34;61.91;101189.25;7394183;19;1849;-50
2023/12/31 11:47:25;;;;;;;;;;;;;;;19.20;62.11;101184.16;7394287;19;1625;-46
2023/12/31 11:49:54;;;;;;;;;;;;;;;19.03;61.88;101180.19;7390410;19;1729;-46
2023/12/31 11:52:23;;;;;;;;;;;;;;;19.40;60.46;101178.03;7393336;19;1402;-46
2023/12/31 11:54:54;;;;;;;;;;;;;;;19.85;59.26;101176.97;7393184;19;1796;-46
2023/12/31 11:57:22;;;;;;;;;;;;;;;19.66;59.67;101183.88;7392674;19;1831;-46
2023/12/31 11:59:52;;;;;;;;;;;;;;;19.47;60.15;101179.19;7391668;19;1864;-47
2023/12/31 12:02:20;;;;;;;;;;;;;;;19.29;60.57;101172.69;7393231;19;1744;-46
2023/12/31 12:04:48;;;;;;;;;;;;;;;19.16;60.78;101159.47;7392566;19;1849;-46
2023/12/31 12:07:16;;;;;;;;;;;;;;;19.07;61.09;101170.94;7392186;19;1806;-46
2023/12/31 12:09:46;;;;;;;;;;;;;;;19.21;61.13;101169.78;7391566;19;1737;-46
2023/12/31 12:12:17;;;;;;;;;;;;;;;19.75;59.86;101165.31;7391706;19;1589;-46
2023/12/31 12:14:45;;;;;;;;;;;;;;;19.71;59.76;101172.78;7393462;19;1373;-46
2023/12/31 12:17:15;;;;;;;;;;;;;;;19.44;60.24;101160.69;7392674;19;1827;-47
2023/12/31 12:19:43;;;;;;;;;;;;;;;19.27;60.85;101164.75;7394142;19;1014;-46
2023/12/31 12:22:12;;;;;;;;;;;;;;;19.17;61.23;101160.31;7392726;19;1484;-46
2023/12/31 12:24:40;;;;;;;;;;;;;;;19.00;61.34;101143.78;7395130;19;1534;-46
2023/12/31 12:27:09;;;;;;;;;;;;;;;19.14;61.51;101168.59;7377946;19;1855;-46
2023/12/31 12:29:40;;;;;;;;;;;;;;;19.59;60.23;101158.53;7395649;19;1586;-46
2023/12/31 12:32:08;;;;;;;;;;;;;;;19.66;59.83;101150.81;7396419;19;1005;-46
2023/12/31 12:34:37;;;;;;;;;;;;;;;19.40;60.49;101151.19;7395443;19;1579;-46
2023/12/31 12:37:05;;;;;;;;;;;;;;;19.25;60.96;101160.50;7392978;19;1776;-46
2023/12/31 12:39:34;;;;;;;;;;;;;;;19.08;61.29;101149.38;7393501;19;1728;-46
2023/12/31 12:42:02;;;;;;;;;;;;;;;18.96;61.56;101145.03;7395060;19;1216;-46
2023/12/31 12:44:31;;;;;;;;;;;;;;;19.16;61.25;101147.88;7395930;19;1082;-46
2023/12/31 12:47:04;;;;;;;;;;;;;;;19.67;60.14;101153.34;7392211;19;1840;-46
2023/12/31 12:49:32;;;;;;;;;;;;;;;19.58;59.87;101146.13;7394801;19;1587;-46
2023/12/31 12:52:00;;;;;;;;;;;;;;;19.26;60.69;101144.31;7394757;19;1464;-46
2023/12/31 12:54:29;;;;;;;;;;;;;;;19.17;60.93;101152.25;7394225;19;1345;-46
2023/12/31 12:56:57;;;;;;;;;;;;;;;19.09;61.15;101155.56;7393659;19;1721;-46